Time;durP1;ratioP1;P1;durP2;ratioP2;P2;SDS_P1;SDS_P2;PMS_P1;PMS_P2;Temp;Humidity;BMP_temperature;BMP_pressure;BME280_temperature;BME280_humidity;BME280_pressure;Samples;Min_cycle;Max_cycle;Signal;HPM_P1;HPM_P2
2023/08/31 00:00:55;;;;;;;34.80;31.80;;;17.90;99.90;;;;;;5012107;28;20057;-76
2023/08/31 00:03:21;;;;;;;59.35;55.38;;;17.80;99.90;;;;;;5013236;28;20395;-75
2023/08/31 00:05:51;;;;;;;24.67;22.25;;;17.80;99.90;;;;;;5012786;28;20030;-74
2023/08/31 00:08:17;;;;;;;37.03;34.25;;;17.80;99.90;;;;;;5013501;28;20041;-75
2023/08/31 00:10:43;;;;;;;37.97;34.70;;;17.70;99.90;;;;;;5010992;28;20064;-76
2023/08/31 00:13:09;;;;;;;59.55;56.15;;;17.70;99.90;;;;;;5011819;28;20026;-75
2023/08/31 00:15:36;;;;;;;57.78;54.08;;;17.60;99.90;;;;;;5011914;28;20053;-76
2023/08/31 00:18:05;;;;;;;37.30;34.08;;;17.60;99.90;;;;;;5011620;28;20026;-75
2023/08/31 00:20:33;;;;;;;39.67;36.80;;;17.60;99.90;;;;;;5012668;28;20034;-75
2023/08/31 00:22:59;;;;;;;34.60;31.67;;;17.50;99.90;;;;;;5012909;28;20459;-76
2023/08/31 00:25:26;;;;;;;29.77;27.02;;;17.50;99.90;;;;;;5011322;28;20464;-75
2023/08/31 00:27:53;;;;;;;21.45;19.13;;;17.40;99.90;;;;;;5011623;28;20026;-75
2023/08/31 00:30:20;;;;;;;19.73;15.68;;;17.40;99.90;;;;;;5011500;28;20038;-76
2023/08/31 00:32:47;;;;;;;22.23;16.95;;;17.40;99.90;;;;;;5011193;28;20042;-75
2023/08/31 00:35:13;;;;;;;28.52;26.05;;;17.40;99.90;;;;;;5011055;28;20388;-75
2023/08/31 00:37:39;;;;;;;77.28;72.70;;;17.30;99.90;;;;;;5012494;28;20052;-75
2023/08/31 00:40:08;;;;;;;56.17;52.67;;;17.30;99.90;;;;;;5012377;28;20026;-75
2023/08/31 00:42:34;;;;;;;41.42;38.20;;;17.30;99.90;;;;;;5012158;28;20037;-75
2023/08/31 00:45:00;;;;;;;36.28;33.25;;;17.30;99.90;;;;;;5012335;28;20383;-76
2023/08/31 00:47:26;;;;;;;17.02;15.18;;;17.40;99.90;;;;;;5011790;28;20026;-76
2023/08/31 00:49:52;;;;;;;19.25;16.95;;;17.30;99.90;;;;;;5012402;28;20034;-76
2023/08/31 00:52:19;;;;;;;19.80;15.98;;;17.30;99.90;;;;;;5010966;28;20038;-75
2023/08/31 00:54:45;;;;;;;21.02;18.80;;;17.30;99.90;;;;;;5012469;28;20021;-75
2023/08/31 00:57:12;;;;;;;17.33;15.52;;;17.30;99.90;;;;;;5010924;28;20026;-75
2023/08/31 00:59:38;;;;;;;18.27;15.45;;;17.30;99.90;;;;;;5010883;28;20026;-76
2023/08/31 01:02:33;;;;;;;20.25;16.80;;;17.30;99.90;;;;;;5010436;28;20045;-75
2023/08/31 01:05:09;;;;;;;21.48;19.38;;;17.30;99.90;;;;;;4971028;28;20043;-76
2023/08/31 01:07:44;;;;;;;22.75;20.50;;;17.20;99.90;;;;;;4955859;28;20031;-76
2023/08/31 01:10:19;;;;;;;24.10;21.65;;;17.00;99.90;;;;;;4954819;28;20043;-75
2023/08/31 01:13:00;;;;;;;18.15;16.33;;;17.00;99.90;;;;;;4936739;29;20047;-75
2023/08/31 01:15:29;;;;;;;21.27;18.95;;;17.00;99.90;;;;;;4952134;28;20034;-75
2023/08/31 01:17:56;;;;;;;24.88;22.33;;;17.00;99.90;;;;;;4954962;28;20053;-75
2023/08/31 01:20:28;;;;;;;27.45;24.58;;;17.00;99.90;;;;;;4954455;28;20050;-76
2023/08/31 01:22:55;;;;;;;16.73;11.55;;;17.00;99.90;;;;;;4971053;28;20047;-76
2023/08/31 01:25:22;;;;;;;15.27;10.80;;;17.10;99.90;;;;;;4970807;28;20412;-75
2023/08/31 01:27:48;;;;;;;19.60;11.15;;;17.10;99.90;;;;;;4954573;28;20038;-74
2023/08/31 01:30:14;;;;;;;17.23;11.43;;;17.10;99.90;;;;;;4953799;28;20049;-75
2023/08/31 01:32:46;;;;;;;16.88;10.90;;;17.10;99.90;;;;;;4970970;28;20039;-75
2023/08/31 01:35:14;;;;;;;15.65;10.65;;;17.10;99.90;;;;;;4954725;28;20035;-76
2023/08/31 01:37:51;;;;;;;20.20;12.13;;;17.10;99.90;;;;;;4954963;28;20031;-75
2023/08/31 01:40:21;;;;;;;13.65;11.18;;;17.10;99.90;;;;;;4954969;28;20404;-75
2023/08/31 01:42:47;;;;;;;15.40;11.57;;;17.10;99.90;;;;;;5003228;28;20057;-76
2023/08/31 01:45:15;;;;;;;17.88;13.95;;;17.10;99.90;;;;;;5010050;28;20029;-75
2023/08/31 01:47:41;;;;;;;19.75;13.38;;;17.10;99.90;;;;;;5010929;28;20490;-76
2023/08/31 01:50:08;;;;;;;20.58;13.20;;;17.00;99.90;;;;;;4997733;28;20054;-76
2023/08/31 01:52:34;;;;;;;15.52;10.88;;;17.10;99.90;;;;;;5013836;28;20053;-75
2023/08/31 01:55:00;;;;;;;14.60;11.45;;;17.10;99.90;;;;;;5015533;28;20498;-75
2023/08/31 01:57:26;;;;;;;15.45;11.18;;;17.00;99.90;;;;;;5012966;28;20467;-75
2023/08/31 01:59:53;;;;;;;17.83;11.35;;;17.10;99.90;;;;;;5011710;28;20026;-75
2023/08/31 02:02:19;;;;;;;16.25;11.15;;;17.10;99.90;;;;;;5006507;28;20030;-75
2023/08/31 02:04:46;;;;;;;18.30;10.55;;;17.20;99.90;;;;;;5013577;28;20391;-75
2023/08/31 02:07:12;;;;;;;18.05;10.43;;;17.20;99.90;;;;;;5013583;28;20475;-75
2023/08/31 02:09:38;;;;;;;16.90;11.25;;;17.20;99.90;;;;;;5013714;28;20045;-75
2023/08/31 02:12:05;;;;;;;15.25;11.23;;;17.20;99.90;;;;;;5013049;28;20546;-75
2023/08/31 02:14:31;;;;;;;15.95;10.95;;;17.20;99.90;;;;;;5013499;28;20030;-75
2023/08/31 02:16:57;;;;;;;16.85;11.15;;;17.10;99.90;;;;;;5012762;28;20045;-75
2023/08/31 02:19:23;;;;;;;18.17;11.13;;;17.10;99.90;;;;;;5012301;28;20037;-75
2023/08/31 02:21:49;;;;;;;17.63;10.60;;;17.20;99.90;;;;;;5011889;28;20125;-75
2023/08/31 02:24:15;;;;;;;20.40;11.05;;;17.20;99.90;;;;;;5013662;28;20056;-75
2023/08/31 02:26:41;;;;;;;18.52;11.43;;;17.30;99.90;;;;;;5011722;28;20052;-75
2023/08/31 02:29:07;;;;;;;18.60;11.70;;;17.20;99.90;;;;;;5013326;28;20046;-75
2023/08/31 02:31:33;;;;;;;19.42;13.52;;;17.20;99.90;;;;;;5012796;28;20480;-75
2023/08/31 02:33:59;;;;;;;19.10;14.30;;;17.20;99.90;;;;;;5012065;28;20032;-75
2023/08/31 02:36:26;;;;;;;21.33;19.20;;;17.20;99.90;;;;;;5013527;28;20406;-75
2023/08/31 02:38:53;;;;;;;23.45;21.00;;;17.20;99.90;;;;;;5013320;28;20669;-75
2023/08/31 02:41:19;;;;;;;22.70;18.70;;;17.20;99.90;;;;;;5013880;28;20030;-75
2023/08/31 02:43:45;;;;;;;20.65;17.48;;;17.20;99.90;;;;;;5014645;28;20459;-75
2023/08/31 02:46:11;;;;;;;21.02;15.77;;;17.20;99.90;;;;;;5012141;28;20042;-75
2023/08/31 02:48:38;;;;;;;18.88;12.73;;;17.20;99.90;;;;;;5014615;28;20379;-75
2023/08/31 02:51:04;;;;;;;17.42;11.75;;;17.10;99.90;;;;;;5014033;28;20058;-75
2023/08/31 02:53:30;;;;;;;18.63;13.73;;;17.10;99.90;;;;;;5014090;28;20046;-75
2023/08/31 02:55:57;;;;;;;20.40;13.45;;;17.10;99.90;;;;;;5012522;28;20034;-75
2023/08/31 02:58:23;;;;;;;18.33;11.57;;;17.00;99.90;;;;;;5014656;28;20380;-74
2023/08/31 03:00:49;;;;;;;15.05;10.98;;;16.90;99.90;;;;;;5012280;28;20034;-74
2023/08/31 03:03:18;;;;;;;16.60;11.55;;;17.00;99.90;;;;;;5014001;28;20032;-74
2023/08/31 03:05:45;;;;;;;15.95;10.57;;;17.00;99.90;;;;;;5012324;28;20479;-75
2023/08/31 03:08:11;;;;;;;18.35;12.32;;;17.10;99.90;;;;;;5014084;28;20026;-75
2023/08/31 03:10:38;;;;;;;19.88;11.65;;;17.10;99.90;;;;;;5012233;28;20042;-75
2023/08/31 03:13:04;;;;;;;17.65;12.55;;;17.10;99.90;;;;;;5012976;28;20379;-75
2023/08/31 03:15:32;;;;;;;15.38;11.52;;;17.00;99.90;;;;;;5011732;28;20907;-74
2023/08/31 03:17:58;;;;;;;14.65;10.55;;;17.00;99.90;;;;;;5012661;28;20034;-75
2023/08/31 03:20:24;;;;;;;15.30;11.25;;;17.10;99.90;;;;;;5013781;28;20080;-75
2023/08/31 03:22:50;;;;;;;18.65;11.52;;;17.10;99.90;;;;;;5014183;28;20041;-75
2023/08/31 03:25:17;;;;;;;15.73;12.10;;;17.20;99.90;;;;;;5013292;28;20034;-75
2023/08/31 03:27:43;;;;;;;18.85;14.85;;;17.20;99.90;;;;;;5013904;28;20033;-75
2023/08/31 03:30:09;;;;;;;18.75;13.95;;;17.20;99.90;;;;;;5012126;28;20038;-74
2023/08/31 03:32:35;;;;;;;20.27;16.60;;;17.20;99.90;;;;;;5012350;28;20056;-75
2023/08/31 03:35:03;;;;;;;17.48;15.75;;;17.20;99.90;;;;;;5013658;28;20041;-75
2023/08/31 03:37:29;;;;;;;17.73;15.85;;;17.20;99.90;;;;;;5011893;28;20046;-75
2023/08/31 03:39:55;;;;;;;16.90;15.15;;;17.30;99.90;;;;;;5011964;28;20383;-75
2023/08/31 03:42:22;;;;;;;21.92;15.77;;;17.30;99.90;;;;;;5013231;28;20037;-75
2023/08/31 03:44:48;;;;;;;19.17;14.02;;;17.30;99.90;;;;;;5013411;28;20034;-75
2023/08/31 03:47:14;;;;;;;18.08;14.98;;;17.30;99.90;;;;;;5011384;28;20380;-75
2023/08/31 03:49:40;;;;;;;18.98;14.32;;;17.30;99.90;;;;;;5011986;28;20038;-75
2023/08/31 03:52:06;;;;;;;15.00;13.63;;;17.30;99.90;;;;;;5011952;28;20387;-75
2023/08/31 03:54:32;;;;;;;16.30;14.80;;;17.30;99.90;;;;;;5012942;28;20045;-75
2023/08/31 03:56:58;;;;;;;22.35;16.10;;;17.20;99.90;;;;;;5013006;28;20038;-75
2023/08/31 03:59:25;;;;;;;18.23;16.10;;;17.30;99.90;;;;;;5013157;28;20044;-75
2023/08/31 04:01:51;;;;;;;22.27;19.98;;;17.20;99.90;;;;;;5011020;28;20038;-75
2023/08/31 04:04:17;;;;;;;22.33;16.90;;;17.30;99.90;;;;;;5011965;28;20041;-75
2023/08/31 04:06:43;;;;;;;16.05;13.77;;;17.20;99.90;;;;;;5012790;28;20033;-75
2023/08/31 04:09:09;;;;;;;19.33;14.63;;;17.30;99.90;;;;;;5012586;28;20041;-75
2023/08/31 04:11:35;;;;;;;20.90;18.95;;;17.30;99.90;;;;;;5012500;28;20042;-75
2023/08/31 04:14:01;;;;;;;25.98;23.55;;;17.30;99.90;;;;;;5012887;28;20030;-75
2023/08/31 04:16:28;;;;;;;23.80;21.70;;;17.30;99.90;;;;;;5011183;28;20038;-75
2023/08/31 04:18:55;;;;;;;22.08;19.13;;;17.30;99.90;;;;;;5011732;28;20407;-75
2023/08/31 04:21:21;;;;;;;23.63;17.45;;;17.30;99.90;;;;;;5011373;28;20040;-75
2023/08/31 04:23:47;;;;;;;18.83;14.45;;;17.30;99.90;;;;;;5012532;28;20030;-75
2023/08/31 04:26:13;;;;;;;18.35;12.38;;;17.20;99.90;;;;;;5012342;28;20026;-75
2023/08/31 04:28:40;;;;;;;15.88;13.93;;;17.10;99.90;;;;;;5012745;28;20028;-75
2023/08/31 04:31:07;;;;;;;16.77;11.88;;;17.10;99.90;;;;;;5010438;28;20411;-75
2023/08/31 04:33:37;;;;;;;17.27;11.27;;;17.10;99.90;;;;;;5012648;28;20022;-75
2023/08/31 04:36:04;;;;;;;14.38;12.38;;;17.20;99.90;;;;;;5011127;28;20479;-75
2023/08/31 04:38:37;;;;;;;18.10;11.80;;;17.30;99.90;;;;;;5012275;28;20029;-75
2023/08/31 04:41:03;;;;;;;15.70;12.07;;;17.30;99.90;;;;;;5011073;28;20036;-75
2023/08/31 04:43:30;;;;;;;15.50;12.95;;;17.30;99.90;;;;;;5011251;28;20026;-75
2023/08/31 04:45:56;;;;;;;18.85;13.38;;;17.30;99.90;;;;;;4994005;28;20041;-75
2023/08/31 04:48:22;;;;;;;16.60;12.90;;;17.30;99.90;;;;;;5011405;28;20033;-75
2023/08/31 04:50:48;;;;;;;17.95;12.80;;;17.30;99.90;;;;;;5016078;28;20537;-75
2023/08/31 04:53:14;;;;;;;17.92;12.55;;;17.30;99.90;;;;;;5012283;28;20050;-75
2023/08/31 04:55:40;;;;;;;21.88;12.25;;;17.40;99.90;;;;;;5011091;28;20037;-75
2023/08/31 04:58:06;;;;;;;15.43;11.60;;;17.30;99.90;;;;;;5012412;28;20050;-75
2023/08/31 05:00:32;;;;;;;14.15;12.63;;;17.30;99.90;;;;;;5010706;28;20026;-75
2023/08/31 05:02:58;;;;;;;21.98;13.13;;;17.20;99.90;;;;;;5012281;28;20080;-75
2023/08/31 05:05:24;;;;;;;15.70;12.25;;;17.20;99.90;;;;;;5011020;28;20038;-75
2023/08/31 05:07:50;;;;;;;15.60;14.05;;;17.30;99.90;;;;;;5012407;28;20475;-75
2023/08/31 05:10:17;;;;;;;18.52;14.70;;;17.30;99.90;;;;;;5011176;28;20053;-75
2023/08/31 05:12:43;;;;;;;20.38;13.68;;;17.20;99.90;;;;;;5011085;28;20391;-74
2023/08/31 05:15:09;;;;;;;16.15;12.68;;;17.20;99.90;;;;;;5011840;28;20049;-75
2023/08/31 05:17:35;;;;;;;15.77;14.18;;;17.30;99.90;;;;;;5012401;28;20025;-75
2023/08/31 05:20:04;;;;;;;17.83;16.05;;;17.30;99.90;;;;;;5011888;28;20379;-75
2023/08/31 05:22:30;;;;;;;21.05;16.75;;;17.30;99.90;;;;;;5011044;28;20029;-75
2023/08/31 05:24:56;;;;;;;27.65;19.92;;;17.30;99.90;;;;;;5016012;28;20038;-75
2023/08/31 05:27:22;;;;;;;18.77;16.77;;;17.20;99.90;;;;;;5016020;28;20030;-75
2023/08/31 05:29:49;;;;;;;23.67;21.55;;;17.20;99.90;;;;;;5016432;28;20050;-75
2023/08/31 05:32:15;;;;;;;19.27;17.27;;;16.90;99.90;;;;;;5015393;28;20038;-75
2023/08/31 05:34:41;;;;;;;20.80;13.93;;;16.80;99.90;;;;;;5015627;28;20053;-75
2023/08/31 05:37:07;;;;;;;18.25;12.75;;;16.60;99.90;;;;;;5014635;28;20391;-75
2023/08/31 05:39:33;;;;;;;16.98;12.40;;;16.60;99.90;;;;;;5015656;28;20036;-75
2023/08/31 05:42:00;;;;;;;14.65;11.32;;;16.60;99.90;;;;;;4982243;28;20041;-75
2023/08/31 05:44:26;;;;;;;17.25;11.68;;;16.50;99.90;;;;;;5015867;28;20383;-75
2023/08/31 05:46:52;;;;;;;16.40;12.45;;;16.40;99.90;;;;;;5015123;28;20049;-75
2023/08/31 05:49:18;;;;;;;14.95;11.25;;;16.40;99.90;;;;;;5015277;28;20087;-75
2023/08/31 05:51:44;;;;;;;16.98;13.27;;;16.30;99.90;;;;;;5015534;28;20038;-75
2023/08/31 05:54:12;;;;;;;18.40;13.48;;;16.30;99.90;;;;;;5015423;28;20042;-75
2023/08/31 05:56:39;;;;;;;16.63;10.95;;;16.30;99.90;;;;;;5015462;28;20022;-75
2023/08/31 05:59:06;;;;;;;17.85;11.00;;;16.30;99.90;;;;;;5014188;28;20041;-75
2023/08/31 06:01:32;;;;;;;16.15;12.05;;;16.20;99.90;;;;;;5014967;28;20403;-75
2023/08/31 06:03:58;;;;;;;15.48;11.07;;;16.10;99.90;;;;;;5014964;28;20022;-74
2023/08/31 06:06:24;;;;;;;15.35;11.55;;;16.10;99.90;;;;;;5015430;28;20494;-75
2023/08/31 06:08:50;;;;;;;16.85;11.43;;;16.20;99.90;;;;;;5015282;28;20033;-75
2023/08/31 06:11:16;;;;;;;19.00;11.73;;;16.10;99.90;;;;;;4997295;28;20537;-75
2023/08/31 06:13:43;;;;;;;14.43;11.32;;;16.00;99.90;;;;;;5014057;28;20030;-74
2023/08/31 06:16:09;;;;;;;14.57;11.95;;;16.00;99.90;;;;;;5014650;28;20510;-75
2023/08/31 06:18:35;;;;;;;21.30;14.05;;;15.90;99.90;;;;;;5014658;28;20022;-75
2023/08/31 06:21:01;;;;;;;14.70;10.23;;;15.90;99.90;;;;;;5013853;28;20529;-75
2023/08/31 06:23:27;;;;;;;20.20;11.43;;;15.90;99.90;;;;;;5015041;28;20037;-75
2023/08/31 06:25:53;;;;;;;15.15;9.73;;;15.90;99.90;;;;;;5014935;28;20025;-74
2023/08/31 06:28:19;;;;;;;16.13;10.23;;;15.90;99.90;;;;;;5013990;28;20045;-75
2023/08/31 06:30:48;;;;;;;16.27;9.68;;;15.80;99.90;;;;;;5012930;28;20050;-75
2023/08/31 06:33:14;;;;;;;22.42;10.30;;;15.80;99.90;;;;;;5014414;28;20022;-76
2023/08/31 06:35:40;;;;;;;17.98;8.63;;;15.80;99.90;;;;;;5013219;28;20033;-76
2023/08/31 06:38:07;;;;;;;14.32;8.30;;;15.90;99.90;;;;;;5014745;28;20051;-76
2023/08/31 06:40:33;;;;;;;12.63;8.80;;;15.90;99.90;;;;;;5013500;28;20414;-75
2023/08/31 06:42:59;;;;;;;25.83;10.30;;;15.90;99.90;;;;;;5014510;28;20026;-75
2023/08/31 06:45:25;;;;;;;20.70;10.10;;;15.90;99.90;;;;;;5014169;28;20045;-75
2023/08/31 06:47:51;;;;;;;13.95;8.52;;;15.90;99.90;;;;;;5014222;28;20033;-75
2023/08/31 06:50:17;;;;;;;15.15;8.20;;;15.90;99.90;;;;;;5013115;28;20029;-76
2023/08/31 06:52:46;;;;;;;16.88;8.98;;;15.90;99.90;;;;;;5014263;28;20045;-76
2023/08/31 06:55:12;;;;;;;17.25;9.55;;;16.00;99.90;;;;;;5013197;28;20022;-76
2023/08/31 06:57:38;;;;;;;10.95;8.75;;;16.00;99.90;;;;;;5013284;28;20034;-76
2023/08/31 07:00:07;;;;;;;20.70;12.50;;;16.10;99.90;;;;;;5014172;28;20048;-75
2023/08/31 07:02:34;;;;;;;19.13;11.57;;;16.10;99.90;;;;;;5012626;28;20033;-76
2023/08/31 07:05:01;;;;;;;23.13;13.27;;;16.10;99.90;;;;;;5014553;28;20502;-76
2023/08/31 07:07:27;;;;;;;18.42;11.73;;;16.20;99.90;;;;;;5014404;28;20042;-75
2023/08/31 07:09:54;;;;;;;19.55;11.35;;;16.30;99.90;;;;;;5012714;28;20037;-75
2023/08/31 07:12:20;;;;;;;17.95;11.50;;;16.40;99.90;;;;;;5012965;28;20430;-76
2023/08/31 07:14:46;;;;;;;14.98;11.20;;;16.40;99.90;;;;;;5014041;28;20038;-76
2023/08/31 07:17:12;;;;;;;22.00;12.45;;;16.50;99.90;;;;;;4995795;28;20042;-76
2023/08/31 07:19:38;;;;;;;17.60;12.10;;;16.50;99.90;;;;;;5013892;28;20041;-76
2023/08/31 07:22:06;;;;;;;17.05;11.93;;;16.60;99.90;;;;;;5013836;28;20030;-76
2023/08/31 07:24:32;;;;;;;13.38;11.77;;;16.80;99.90;;;;;;5012695;28;20034;-76
2023/08/31 07:26:58;;;;;;;19.48;14.73;;;16.90;99.90;;;;;;5012814;28;20037;-76
2023/08/31 07:29:24;;;;;;;19.45;12.70;;;17.10;99.90;;;;;;5013773;28;20486;-76
2023/08/31 07:31:50;;;;;;;15.70;12.32;;;17.20;99.90;;;;;;5012654;28;20054;-75
2023/08/31 07:34:16;;;;;;;16.35;10.15;;;17.20;99.90;;;;;;5013706;28;20030;-75
2023/08/31 07:36:43;;;;;;;15.75;10.85;;;17.30;99.90;;;;;;5013572;28;20022;-75
2023/08/31 07:39:09;;;;;;;13.30;10.13;;;17.30;99.90;;;;;;5013581;28;20097;-75
2023/08/31 07:41:35;;;;;;;14.13;9.85;;;17.30;99.90;;;;;;5013567;28;20026;-75
2023/08/31 07:44:02;;;;;;;16.98;9.77;;;17.40;99.90;;;;;;5013505;28;20037;-75
2023/08/31 07:46:28;;;;;;;10.80;9.05;;;17.30;99.90;;;;;;5012137;28;20034;-75
2023/08/31 07:48:55;;;;;;;15.32;9.70;;;17.40;99.90;;;;;;5013300;28;20044;-76
2023/08/31 07:51:23;;;;;;;14.57;8.25;;;17.30;99.90;;;;;;5013657;28;20053;-75
2023/08/31 07:53:49;;;;;;;16.35;9.73;;;17.40;99.90;;;;;;5013195;28;20038;-74
2023/08/31 07:56:15;;;;;;;13.73;8.05;;;17.50;99.90;;;;;;5013565;28;20038;-75
2023/08/31 07:58:42;;;;;;;15.07;8.23;;;17.60;99.90;;;;;;5013283;28;20459;-75
2023/08/31 08:01:08;;;;;;;14.07;8.13;;;17.70;99.90;;;;;;5011522;28;20034;-75
2023/08/31 08:03:34;;;;;;;11.63;9.35;;;17.70;99.90;;;;;;5013116;28;20037;-75
2023/08/31 08:06:00;;;;;;;13.13;9.20;;;17.70;99.90;;;;;;5013490;28;20042;-75
2023/08/31 08:08:26;;;;;;;12.15;8.20;;;17.90;99.90;;;;;;5013174;28;20498;-75
2023/08/31 08:10:53;;;;;;;13.65;8.98;;;17.80;99.90;;;;;;5013115;28;20049;-75
2023/08/31 08:13:19;;;;;;;13.73;10.15;;;17.90;99.90;;;;;;5012979;28;20029;-76
2023/08/31 08:15:46;;;;;;;14.35;12.95;;;17.80;99.90;;;;;;5012340;28;20025;-76
2023/08/31 08:18:12;;;;;;;17.88;16.33;;;17.90;99.90;;;;;;5011635;28;20029;-75
2023/08/31 08:20:38;;;;;;;10.45;9.30;;;18.00;99.90;;;;;;5012873;28;20037;-75
2023/08/31 08:23:05;;;;;;;11.88;10.38;;;18.10;99.90;;;;;;5011831;28;20029;-76
2023/08/31 08:25:32;;;;;;;18.70;12.13;;;18.20;99.90;;;;;;5012745;28;20033;-76
2023/08/31 08:27:58;;;;;;;18.52;16.70;;;18.30;99.90;;;;;;5011685;28;20030;-75
2023/08/31 08:30:24;;;;;;;16.92;15.18;;;18.30;99.90;;;;;;5011985;28;20492;-76
2023/08/31 08:32:51;;;;;;;14.27;8.35;;;18.30;99.90;;;;;;5012470;28;20038;-76
2023/08/31 08:35:17;;;;;;;10.02;8.30;;;18.30;99.90;;;;;;5012553;28;20022;-75
2023/08/31 08:37:43;;;;;;;10.85;8.25;;;18.30;99.90;;;;;;5011602;28;20387;-76
2023/08/31 08:40:09;;;;;;;10.05;8.57;;;18.40;99.90;;;;;;5012623;28;20026;-76
2023/08/31 08:42:39;;;;;;;11.88;10.02;;;18.50;99.90;;;;;;5012687;28;20387;-75
2023/08/31 08:45:05;;;;;;;10.88;9.75;;;18.50;99.90;;;;;;5010702;28;20357;-75
2023/08/31 08:47:31;;;;;;;9.80;8.80;;;18.50;99.90;;;;;;5012506;28;20029;-76
2023/08/31 08:49:57;;;;;;;12.98;8.88;;;18.50;99.90;;;;;;5011212;28;20033;-76
2023/08/31 08:52:24;;;;;;;9.75;8.35;;;18.60;99.90;;;;;;5011316;28;20038;-76
2023/08/31 08:54:50;;;;;;;9.55;8.68;;;18.60;99.90;;;;;;5011447;28;20034;-75
2023/08/31 08:57:16;;;;;;;9.05;8.20;;;18.60;99.90;;;;;;5011829;28;20042;-75
2023/08/31 08:59:42;;;;;;;8.48;7.78;;;18.60;99.90;;;;;;5016638;28;20030;-76
2023/08/31 09:02:12;;;;;;;7.53;6.75;;;18.60;99.90;;;;;;5016199;28;20057;-76
2023/08/31 09:04:38;;;;;;;7.45;6.75;;;18.50;99.90;;;;;;5016448;28;20034;-76
2023/08/31 09:07:04;;;;;;;8.93;8.13;;;18.60;99.90;;;;;;5014816;28;20037;-76
2023/08/31 09:09:30;;;;;;;8.27;7.72;;;18.60;99.90;;;;;;5016264;28;20568;-76
2023/08/31 09:11:56;;;;;;;9.20;8.50;;;18.60;99.90;;;;;;5015895;28;20042;-76
2023/08/31 09:14:22;;;;;;;8.38;7.68;;;18.70;99.90;;;;;;5016401;28;20374;-76
2023/08/31 09:16:50;;;;;;;8.75;8.05;;;18.80;99.90;;;;;;5015873;28;20045;-76
2023/08/31 09:19:20;;;;;;;9.05;8.40;;;18.80;99.90;;;;;;5014971;28;20037;-76
2023/08/31 09:21:47;;;;;;;8.73;8.02;;;18.90;99.90;;;;;;5016417;28;20467;-76
2023/08/31 09:24:13;;;;;;;8.38;7.78;;;18.90;99.90;;;;;;5014780;28;20494;-76
2023/08/31 09:26:43;;;;;;;8.10;7.47;;;19.00;99.90;;;;;;5013931;28;20038;-76
2023/08/31 09:29:09;;;;;;;9.38;8.48;;;19.10;99.90;;;;;;5014897;28;20494;-75
2023/08/31 09:31:35;;;;;;;9.32;8.73;;;19.10;99.90;;;;;;5015246;28;20054;-76
2023/08/31 09:34:03;;;;;;;9.10;8.40;;;19.20;99.90;;;;;;5014831;28;20383;-76
2023/08/31 09:36:29;;;;;;;49.90;47.35;;;19.40;99.90;;;;;;5014692;28;20456;-76
2023/08/31 09:38:58;;;;;;;38.80;36.75;;;19.40;99.90;;;;;;5014568;28;20030;-76
2023/08/31 09:41:24;;;;;;;19.85;18.70;;;19.40;99.90;;;;;;4997776;28;20034;-76
2023/08/31 09:43:50;;;;;;;31.65;29.77;;;19.50;99.90;;;;;;5015756;28;20022;-76
2023/08/31 09:46:16;;;;;;;17.90;16.85;;;19.50;99.90;;;;;;5015533;28;20030;-76
2023/08/31 09:48:43;;;;;;;15.07;14.10;;;19.60;99.90;;;;;;5014460;28;20033;-76
2023/08/31 09:51:12;;;;;;;19.80;18.60;;;19.70;99.90;;;;;;5014334;28;20471;-74
2023/08/31 09:53:39;;;;;;;14.57;13.68;;;19.70;99.90;;;;;;5014311;28;20049;-76
2023/08/31 09:56:06;;;;;;;21.70;20.40;;;19.80;99.90;;;;;;5013980;28;20026;-76
2023/08/31 09:58:32;;;;;;;21.35;20.15;;;19.90;99.90;;;;;;5014221;28;20033;-76
2023/08/31 10:00:58;;;;;;;32.97;31.20;;;19.90;99.90;;;;;;4997716;28;20022;-76
2023/08/31 10:03:24;;;;;;;43.00;40.83;;;19.90;99.90;;;;;;5014111;28;20481;-76
2023/08/31 10:05:50;;;;;;;46.85;44.42;;;19.90;99.90;;;;;;5015402;28;20030;-76
2023/08/31 10:08:17;;;;;;;43.22;40.80;;;19.90;99.90;;;;;;5013791;28;20379;-75
2023/08/31 10:10:43;;;;;;;69.32;65.85;;;20.00;99.90;;;;;;5014110;28;20038;-76
2023/08/31 10:13:09;;;;;;;68.65;65.22;;;20.00;99.90;;;;;;5015259;28;20037;-74
2023/08/31 10:15:35;;;;;;;40.65;38.40;;;20.00;99.90;;;;;;4997247;28;20030;-75
2023/08/31 10:18:05;;;;;;;35.55;33.65;;;20.00;99.90;;;;;;5014062;28;20391;-75
2023/08/31 10:20:31;;;;;;;31.05;29.20;;;20.10;99.90;;;;;;5013823;28;20041;-75
2023/08/31 10:23:07;;;;;;;22.00;20.55;;;20.10;99.90;;;;;;5013955;28;20018;-75
2023/08/31 10:25:45;;;;;;;29.60;28.05;;;20.30;99.90;;;;;;5014592;28;20371;-75
2023/08/31 10:28:24;;;;;;;38.22;36.03;;;20.50;99.90;;;;;;5014960;28;20030;-75
2023/08/31 10:31:08;;;;;;;84.30;80.15;;;20.70;99.90;;;;;;5013036;28;20431;-75
2023/08/31 10:33:34;;;;;;;25.42;24.13;;;20.80;99.90;;;;;;5013634;28;20030;-75
2023/08/31 10:36:00;;;;;;;29.25;27.70;;;20.90;99.90;;;;;;5014764;28;20388;-75
2023/08/31 10:38:27;;;;;;;22.63;21.45;;;20.90;99.90;;;;;;5013751;28;20038;-75
2023/08/31 10:41:05;;;;;;;25.25;24.02;;;21.00;99.90;;;;;;5014489;28;20081;-75
2023/08/31 10:43:45;;;;;;;33.03;31.33;;;21.10;99.90;;;;;;5014570;28;20029;-76
2023/08/31 10:46:46;;;;;;;34.90;33.10;;;21.20;99.90;;;;;;5014403;28;20030;-76
2023/08/31 10:49:17;;;;;;;46.30;43.95;;;21.30;99.90;;;;;;4992776;28;20038;-76
2023/08/31 10:51:44;;;;;;;66.45;63.25;;;21.40;99.90;;;;;;4990835;28;20141;-76
2023/08/31 10:54:23;;;;;;;67.13;63.83;;;21.50;99.90;;;;;;4992191;28;20057;-76
2023/08/31 10:57:02;;;;;;;35.25;33.50;;;21.50;99.90;;;;;;4992455;28;20053;-76
2023/08/31 10:59:50;;;;;;;25.15;23.90;;;21.50;99.90;;;;;;4992321;28;20045;-76
2023/08/31 11:02:38;;;;;;;26.70;25.25;;;21.50;99.90;;;;;;5005710;28;20039;-75
2023/08/31 11:05:14;;;;;;;26.73;25.40;;;21.40;99.90;;;;;;4991813;28;20475;-75
2023/08/31 11:07:47;;;;;;;28.67;27.23;;;21.50;99.90;;;;;;4991774;28;20046;-75
2023/08/31 11:10:15;;;;;;;34.58;32.88;;;21.50;99.90;;;;;;5007795;28;20046;-75
2023/08/31 11:12:42;;;;;;;36.05;34.08;;;21.60;99.90;;;;;;5008584;28;20049;-75
2023/08/31 11:15:08;;;;;;;43.85;41.80;;;21.70;99.90;;;;;;4992002;28;20154;-75
2023/08/31 11:17:36;;;;;;;49.42;47.03;;;21.90;99.90;;;;;;5024964;28;20062;-75
2023/08/31 11:20:05;;;;;;;36.35;34.50;;;22.00;99.90;;;;;;5024266;28;20030;-75
2023/08/31 11:22:31;;;;;;;37.47;35.65;;;22.10;99.90;;;;;;4991627;28;20042;-74
2023/08/31 11:24:57;;;;;;;46.85;44.55;;;22.10;99.90;;;;;;4994268;28;20034;-75
2023/08/31 11:27:23;;;;;;;36.92;35.13;;;22.10;99.90;;;;;;4993075;28;20026;-75
2023/08/31 11:29:50;;;;;;;41.85;39.80;;;22.00;99.90;;;;;;4992988;28;20041;-76
2023/08/31 11:32:16;;;;;;;35.55;33.72;;;22.00;99.90;;;;;;5007391;28;20046;-75
2023/08/31 11:34:44;;;;;;;36.20;34.38;;;22.00;99.90;;;;;;5013751;28;20036;-75
2023/08/31 11:37:17;;;;;;;42.38;40.15;;;22.10;99.90;;;;;;5012339;28;20042;-75
2023/08/31 11:39:49;;;;;;;46.15;43.83;;;22.10;99.90;;;;;;5012429;28;20375;-75
2023/08/31 11:42:16;;;;;;;40.35;38.30;;;22.10;99.90;;;;;;4996160;28;20025;-75
2023/08/31 11:44:42;;;;;;;42.03;39.90;;;22.00;99.90;;;;;;5013595;28;20030;-75
2023/08/31 11:47:08;;;;;;;45.17;42.97;;;22.10;99.90;;;;;;4995696;28;20503;-75
2023/08/31 11:49:34;;;;;;;49.47;47.03;;;22.00;99.90;;;;;;5012177;28;20034;-75
2023/08/31 11:52:00;;;;;;;41.47;39.28;;;22.00;99.90;;;;;;5011842;28;20395;-76
2023/08/31 11:54:27;;;;;;;44.28;42.00;;;22.00;99.90;;;;;;5013219;28;20450;-76
2023/08/31 11:56:53;;;;;;;43.80;41.65;;;21.90;99.90;;;;;;5013285;28;20235;-76
2023/08/31 11:59:20;;;;;;;29.23;27.65;;;21.70;99.90;;;;;;5013228;28;20037;-76
2023/08/31 12:01:47;;;;;;;31.08;29.52;;;21.60;99.90;;;;;;5012833;28;20034;-76
2023/08/31 12:04:19;;;;;;;28.40;26.90;;;21.50;99.90;;;;;;5011945;28;20353;-75
2023/08/31 12:06:53;;;;;;;22.52;21.38;;;21.40;99.90;;;;;;5012834;28;20026;-75
2023/08/31 12:09:20;;;;;;;21.23;19.90;;;21.30;99.90;;;;;;5011859;28;20041;-75
2023/08/31 12:11:52;;;;;;;20.70;19.70;;;21.40;99.90;;;;;;5011889;28;20042;-76
2023/08/31 12:14:25;;;;;;;22.90;21.67;;;21.30;99.90;;;;;;5011866;28;20084;-76
2023/08/31 12:16:53;;;;;;;15.45;14.68;;;21.30;99.90;;;;;;5011259;28;20040;-76
2023/08/31 12:19:19;;;;;;;21.38;20.38;;;21.20;99.90;;;;;;5012862;28;20037;-76
2023/08/31 12:21:46;;;;;;;22.05;20.77;;;21.20;99.90;;;;;;5012676;28;20032;-76
2023/08/31 12:24:12;;;;;;;34.25;32.55;;;21.20;99.90;;;;;;5011736;28;20395;-76
2023/08/31 12:26:39;;;;;;;37.30;35.47;;;21.30;99.90;;;;;;4995067;28;20053;-76
2023/08/31 12:29:05;;;;;;;41.10;39.10;;;21.40;99.90;;;;;;5012944;28;20034;-76